sensor_id;sensor_type;location;lat;lon;timestamp;temperature;humidity
6520;DHT22;3293;51.690;5.982;2022-10-16T00:04:09;11.80;99.90
6520;DHT22;3293;51.690;5.982;2022-10-16T00:09:10;11.80;99.90
6520;DHT22;3293;51.690;5.982;2022-10-16T00:14:13;11.70;99.90
6520;DHT22;3293;51.690;5.982;2022-10-16T00:19:13;11.70;99.90
6520;DHT22;3293;51.690;5.982;2022-10-16T00:24:13;11.70;99.90
6520;DHT22;3293;51.690;5.982;2022-10-16T00:29:13;11.70;99.90
6520;DHT22;3293;51.690;5.982;2022-10-16T00:34:12;11.60;99.90
6520;DHT22;3293;51.690;5.982;2022-10-16T00:39:12;11.60;99.90
6520;DHT22;3293;51.690;5.982;2022-10-16T00:49:40;11.40;99.90
6520;DHT22;3293;51.690;5.982;2022-10-16T00:54:40;11.40;99.90
6520;DHT22;3293;51.690;5.982;2022-10-16T00:59:41;11.30;99.90
6520;DHT22;3293;51.690;5.982;2022-10-16T01:04:47;11.30;99.90
6520;DHT22;3293;51.690;5.982;2022-10-16T01:10:02;11.20;99.90
6520;DHT22;3293;51.690;5.982;2022-10-16T01:20:30;11.20;99.90
6520;DHT22;3293;51.690;5.982;2022-10-16T01:25:53;11.20;99.90
6520;DHT22;3293;51.690;5.982;2022-10-16T01:30:58;11.20;99.90
6520;DHT22;3293;51.690;5.982;2022-10-16T01:36:04;11.30;99.90
6520;DHT22;3293;51.690;5.982;2022-10-16T01:41:22;11.50;99.90
6520;DHT22;3293;51.690;5.982;2022-10-16T01:46:24;11.50;99.90
6520;DHT22;3293;51.690;5.982;2022-10-16T01:51:26;11.50;99.90
6520;DHT22;3293;51.690;5.982;2022-10-16T01:56:27;11.50;99.90
6520;DHT22;3293;51.690;5.982;2022-10-16T02:01:30;11.50;99.90
6520;DHT22;3293;51.690;5.982;2022-10-16T02:06:31;11.70;99.90
6520;DHT22;3293;51.690;5.982;2022-10-16T02:11:31;11.70;99.90
6520;DHT22;3293;51.690;5.982;2022-10-16T02:16:44;11.80;99.90
6520;DHT22;3293;51.690;5.982;2022-10-16T02:21:49;11.80;99.90
6520;DHT22;3293;51.690;5.982;2022-10-16T02:32:32;11.90;99.90
6520;DHT22;3293;51.690;5.982;2022-10-16T02:37:32;12.00;99.90
6520;DHT22;3293;51.690;5.982;2022-10-16T02:42:34;12.10;99.90
6520;DHT22;3293;51.690;5.982;2022-10-16T02:47:35;12.10;99.90
6520;DHT22;3293;51.690;5.982;2022-10-16T02:52:35;12.00;99.90
6520;DHT22;3293;51.690;5.982;2022-10-16T02:57:35;12.00;99.90
6520;DHT22;3293;51.690;5.982;2022-10-16T03:02:36;11.90;99.90
6520;DHT22;3293;51.690;5.982;2022-10-16T03:07:37;11.80;99.90
6520;DHT22;3293;51.690;5.982;2022-10-16T03:12:36;11.70;99.90
6520;DHT22;3293;51.690;5.982;2022-10-16T03:17:36;11.60;99.90
6520;DHT22;3293;51.690;5.982;2022-10-16T03:22:36;11.50;99.90
6520;DHT22;3293;51.690;5.982;2022-10-16T03:27:36;11.50;99.90
6520;DHT22;3293;51.690;5.982;2022-10-16T03:32:36;11.50;99.90
6520;DHT22;3293;51.690;5.982;2022-10-16T03:37:36;11.50;99.90
6520;DHT22;3293;51.690;5.982;2022-10-16T03:42:36;11.50;99.90
6520;DHT22;3293;51.690;5.982;2022-10-16T03:47:36;11.50;99.90
6520;DHT22;3293;51.690;5.982;2022-10-16T03:52:36;11.50;99.90
6520;DHT22;3293;51.690;5.982;2022-10-16T03:57:36;11.50;99.90
6520;DHT22;3293;51.690;5.982;2022-10-16T04:02:36;11.60;99.90
6520;DHT22;3293;51.690;5.982;2022-10-16T04:07:36;11.60;99.90
6520;DHT22;3293;51.690;5.982;2022-10-16T04:12:37;11.70;99.90
6520;DHT22;3293;51.690;5.982;2022-10-16T04:17:37;11.70;99.90
6520;DHT22;3293;51.690;5.982;2022-10-16T04:22:37;11.70;99.90
6520;DHT22;3293;51.690;5.982;2022-10-16T04:27:37;11.70;99.90
6520;DHT22;3293;51.690;5.982;2022-10-16T04:32:37;11.70;99.90
6520;DHT22;3293;51.690;5.982;2022-10-16T04:37:37;11.70;99.90
6520;DHT22;3293;51.690;5.982;2022-10-16T04:42:38;11.80;99.90
6520;DHT22;3293;51.690;5.982;2022-10-16T04:47:38;11.70;99.90
6520;DHT22;3293;51.690;5.982;2022-10-16T04:52:38;11.80;99.90
6520;DHT22;3293;51.690;5.982;2022-10-16T04:57:37;11.70;99.90
6520;DHT22;3293;51.690;5.982;2022-10-16T05:02:37;11.70;99.90
6520;DHT22;3293;51.690;5.982;2022-10-16T05:07:37;11.70;99.90
6520;DHT22;3293;51.690;5.982;2022-10-16T05:12:37;11.70;99.90
6520;DHT22;3293;51.690;5.982;2022-10-16T05:17:37;11.70;99.90
6520;DHT22;3293;51.690;5.982;2022-10-16T05:22:37;11.60;99.90
6520;DHT22;3293;51.690;5.982;2022-10-16T05:27:37;11.60;99.90
6520;DHT22;3293;51.690;5.982;2022-10-16T05:32:37;11.60;99.90
6520;DHT22;3293;51.690;5.982;2022-10-16T05:37:37;11.50;99.90
6520;DHT22;3293;51.690;5.982;2022-10-16T05:42:38;11.50;99.90
6520;DHT22;3293;51.690;5.982;2022-10-16T05:47:38;11.50;99.90
6520;DHT22;3293;51.690;5.982;2022-10-16T05:52:38;11.50;99.90
6520;DHT22;3293;51.690;5.982;2022-10-16T05:57:38;11.50;99.90
6520;DHT22;3293;51.690;5.982;2022-10-16T06:02:38;11.40;99.90
6520;DHT22;3293;51.690;5.982;2022-10-16T06:07:38;11.40;99.90
6520;DHT22;3293;51.690;5.982;2022-10-16T06:12:38;11.50;99.90
6520;DHT22;3293;51.690;5.982;2022-10-16T06:17:38;11.60;99.90
6520;DHT22;3293;51.690;5.982;2022-10-16T06:22:38;11.60;99.90
6520;DHT22;3293;51.690;5.982;2022-10-16T06:27:41;11.70;99.90
6520;DHT22;3293;51.690;5.982;2022-10-16T06:32:41;11.60;99.90
6520;DHT22;3293;51.690;5.982;2022-10-16T06:37:40;11.60;99.90
6520;DHT22;3293;51.690;5.982;2022-10-16T06:42:41;11.70;99.90
6520;DHT22;3293;51.690;5.982;2022-10-16T06:47:41;11.80;99.90
6520;DHT22;3293;51.690;5.982;2022-10-16T06:52:41;11.70;99.90
6520;DHT22;3293;51.690;5.982;2022-10-16T06:57:41;11.80;99.90
6520;DHT22;3293;51.690;5.982;2022-10-16T07:02:41;11.80;99.90
6520;DHT22;3293;51.690;5.982;2022-10-16T07:07:41;11.90;99.90
6520;DHT22;3293;51.690;5.982;2022-10-16T07:12:41;12.00;99.90
6520;DHT22;3293;51.690;5.982;2022-10-16T07:17:41;12.20;99.90
6520;DHT22;3293;51.690;5.982;2022-10-16T07:22:41;12.50;99.90
6520;DHT22;3293;51.690;5.982;2022-10-16T07:27:41;12.90;99.90
6520;DHT22;3293;51.690;5.982;2022-10-16T07:32:41;13.40;99.90
6520;DHT22;3293;51.690;5.982;2022-10-16T07:37:47;13.90;99.90
6520;DHT22;3293;51.690;5.982;2022-10-16T07:42:47;14.50;99.90
6520;DHT22;3293;51.690;5.982;2022-10-16T07:47:46;15.10;99.90
6520;DHT22;3293;51.690;5.982;2022-10-16T07:52:46;15.80;99.90
6520;DHT22;3293;51.690;5.982;2022-10-16T07:57:46;16.30;99.90
6520;DHT22;3293;51.690;5.982;2022-10-16T08:02:46;16.50;99.90
6520;DHT22;3293;51.690;5.982;2022-10-16T08:07:49;16.20;99.90
6520;DHT22;3293;51.690;5.982;2022-10-16T08:12:49;16.10;99.90
6520;DHT22;3293;51.690;5.982;2022-10-16T08:17:57;16.10;99.90
6520;DHT22;3293;51.690;5.982;2022-10-16T08:22:59;15.70;99.90
6520;DHT22;3293;51.690;5.982;2022-10-16T08:27:58;15.50;99.90
6520;DHT22;3293;51.690;5.982;2022-10-16T08:32:58;15.40;99.90
6520;DHT22;3293;51.690;5.982;2022-10-16T08:37:58;15.50;99.90
6520;DHT22;3293;51.690;5.982;2022-10-16T08:48:26;15.60;99.90
6520;DHT22;3293;51.690;5.982;2022-10-16T08:53:52;15.60;99.90
6520;DHT22;3293;51.690;5.982;2022-10-16T08:58:54;15.60;99.90
6520;DHT22;3293;51.690;5.982;2022-10-16T09:19:32;15.70;99.90
6520;DHT22;3293;51.690;5.982;2022-10-16T09:24:34;15.90;99.90
6520;DHT22;3293;51.690;5.982;2022-10-16T09:29:34;15.70;99.90
6520;DHT22;3293;51.690;5.982;2022-10-16T09:34:36;15.90;99.90
6520;DHT22;3293;51.690;5.982;2022-10-16T09:39:54;16.10;99.90
6520;DHT22;3293;51.690;5.982;2022-10-16T09:44:54;16.30;99.90
6520;DHT22;3293;51.690;5.982;2022-10-16T09:50:00;16.40;99.90
6520;DHT22;3293;51.690;5.982;2022-10-16T09:55:13;16.40;99.90
6520;DHT22;3293;51.690;5.982;2022-10-16T10:00:16;16.20;99.90
6520;DHT22;3293;51.690;5.982;2022-10-16T10:10:27;16.60;99.90
6520;DHT22;3293;51.690;5.982;2022-10-16T10:15:33;16.50;99.90
6520;DHT22;3293;51.690;5.982;2022-10-16T10:20:35;16.50;99.90
6520;DHT22;3293;51.690;5.982;2022-10-16T10:25:51;16.60;99.90
6520;DHT22;3293;51.690;5.982;2022-10-16T10:31:06;16.60;99.90
6520;DHT22;3293;51.690;5.982;2022-10-16T10:36:39;16.70;99.90
6520;DHT22;3293;51.690;5.982;2022-10-16T10:48:05;16.80;99.90
6520;DHT22;3293;51.690;5.982;2022-10-16T10:53:06;17.00;99.90
6520;DHT22;3293;51.690;5.982;2022-10-16T11:09:00;17.40;99.90
6520;DHT22;3293;51.690;5.982;2022-10-16T11:14:14;17.70;99.90
6520;DHT22;3293;51.690;5.982;2022-10-16T11:19:18;17.80;99.90
6520;DHT22;3293;51.690;5.982;2022-10-16T11:25:02;17.90;99.90
6520;DHT22;3293;51.690;5.982;2022-10-16T11:30:12;17.70;99.90
6520;DHT22;3293;51.690;5.982;2022-10-16T11:35:32;17.40;99.90
6520;DHT22;3293;51.690;5.982;2022-10-16T11:40:37;17.20;99.90
6520;DHT22;3293;51.690;5.982;2022-10-16T11:45:50;17.10;99.90
6520;DHT22;3293;51.690;5.982;2022-10-16T11:50:58;17.10;99.90
6520;DHT22;3293;51.690;5.982;2022-10-16T11:56:01;17.10;99.90
6520;DHT22;3293;51.690;5.982;2022-10-16T12:01:18;17.00;99.90
6520;DHT22;3293;51.690;5.982;2022-10-16T12:16:26;17.20;99.90
6520;DHT22;3293;51.690;5.982;2022-10-16T12:21:30;17.50;99.90
6520;DHT22;3293;51.690;5.982;2022-10-16T12:26:33;17.80;99.90
6520;DHT22;3293;51.690;5.982;2022-10-16T12:31:44;17.90;99.90
6520;DHT22;3293;51.690;5.982;2022-10-16T12:36:44;17.60;99.90
6520;DHT22;3293;51.690;5.982;2022-10-16T12:41:44;17.60;99.90
6520;DHT22;3293;51.690;5.982;2022-10-16T12:46:44;18.10;99.90
6520;DHT22;3293;51.690;5.982;2022-10-16T12:51:44;18.60;99.90
6520;DHT22;3293;51.690;5.982;2022-10-16T13:08:29;18.20;99.90
6520;DHT22;3293;51.690;5.982;2022-10-16T13:24:21;17.90;99.90
6520;DHT22;3293;51.690;5.982;2022-10-16T13:29:30;18.20;99.90
6520;DHT22;3293;51.690;5.982;2022-10-16T13:34:30;18.30;99.90
6520;DHT22;3293;51.690;5.982;2022-10-16T13:39:30;18.00;99.90
6520;DHT22;3293;51.690;5.982;2022-10-16T13:44:39;17.70;99.90
6520;DHT22;3293;51.690;5.982;2022-10-16T13:49:40;17.40;99.90
6520;DHT22;3293;51.690;5.982;2022-10-16T13:54:40;17.20;99.90
6520;DHT22;3293;51.690;5.982;2022-10-16T13:59:41;17.20;99.90
6520;DHT22;3293;51.690;5.982;2022-10-16T14:04:42;17.40;99.90
6520;DHT22;3293;51.690;5.982;2022-10-16T14:09:41;17.40;99.90
6520;DHT22;3293;51.690;5.982;2022-10-16T14:14:47;17.40;99.90
6520;DHT22;3293;51.690;5.982;2022-10-16T14:19:49;17.50;99.90
6520;DHT22;3293;51.690;5.982;2022-10-16T14:24:50;17.50;99.90
6520;DHT22;3293;51.690;5.982;2022-10-16T14:29:50;17.70;99.90
6520;DHT22;3293;51.690;5.982;2022-10-16T14:34:54;17.90;99.90
6520;DHT22;3293;51.690;5.982;2022-10-16T14:39:55;18.10;99.90
6520;DHT22;3293;51.690;5.982;2022-10-16T14:44:55;18.10;99.90
6520;DHT22;3293;51.690;5.982;2022-10-16T14:49:56;17.90;99.90
6520;DHT22;3293;51.690;5.982;2022-10-16T14:54:58;17.80;99.90
6520;DHT22;3293;51.690;5.982;2022-10-16T14:59:58;17.90;99.90
6520;DHT22;3293;51.690;5.982;2022-10-16T15:10:12;17.90;99.90
6520;DHT22;3293;51.690;5.982;2022-10-16T15:15:23;17.90;99.90
6520;DHT22;3293;51.690;5.982;2022-10-16T15:20:26;17.90;99.90
6520;DHT22;3293;51.690;5.982;2022-10-16T15:25:37;17.90;99.90
6520;DHT22;3293;51.690;5.982;2022-10-16T15:30:38;17.80;99.90
6520;DHT22;3293;51.690;5.982;2022-10-16T15:35:38;17.60;99.90
6520;DHT22;3293;51.690;5.982;2022-10-16T15:40:38;17.40;99.90
6520;DHT22;3293;51.690;5.982;2022-10-16T15:45:38;17.30;99.90
6520;DHT22;3293;51.690;5.982;2022-10-16T15:50:38;17.10;99.90
6520;DHT22;3293;51.690;5.982;2022-10-16T15:55:38;17.00;99.90
6520;DHT22;3293;51.690;5.982;2022-10-16T16:00:38;16.80;99.90
6520;DHT22;3293;51.690;5.982;2022-10-16T16:05:39;16.60;99.90
6520;DHT22;3293;51.690;5.982;2022-10-16T16:10:39;16.50;99.90
6520;DHT22;3293;51.690;5.982;2022-10-16T16:15:40;16.40;99.90
6520;DHT22;3293;51.690;5.982;2022-10-16T16:20:40;16.20;99.90
6520;DHT22;3293;51.690;5.982;2022-10-16T16:25:40;16.10;99.90
6520;DHT22;3293;51.690;5.982;2022-10-16T16:30:40;16.00;99.90
6520;DHT22;3293;51.690;5.982;2022-10-16T16:35:41;15.80;99.90
6520;DHT22;3293;51.690;5.982;2022-10-16T16:40:41;15.60;99.90
6520;DHT22;3293;51.690;5.982;2022-10-16T16:45:41;15.50;99.90
6520;DHT22;3293;51.690;5.982;2022-10-16T16:50:41;15.30;99.90
6520;DHT22;3293;51.690;5.982;2022-10-16T16:55:41;15.30;99.90
6520;DHT22;3293;51.690;5.982;2022-10-16T17:00:47;15.30;99.90
6520;DHT22;3293;51.690;5.982;2022-10-16T17:05:58;15.40;99.90
6520;DHT22;3293;51.690;5.982;2022-10-16T17:10:58;15.30;99.90
6520;DHT22;3293;51.690;5.982;2022-10-16T17:15:58;15.20;99.90
6520;DHT22;3293;51.690;5.982;2022-10-16T17:20:59;15.10;99.90
6520;DHT22;3293;51.690;5.982;2022-10-16T17:26:08;15.10;99.90
6520;DHT22;3293;51.690;5.982;2022-10-16T17:31:14;15.10;99.90
6520;DHT22;3293;51.690;5.982;2022-10-16T17:36:14;15.00;99.90
6520;DHT22;3293;51.690;5.982;2022-10-16T17:41:23;15.00;99.90
6520;DHT22;3293;51.690;5.982;2022-10-16T17:46:23;15.00;99.90
6520;DHT22;3293;51.690;5.982;2022-10-16T17:51:29;15.00;99.90
6520;DHT22;3293;51.690;5.982;2022-10-16T17:56:30;15.00;99.90
6520;DHT22;3293;51.690;5.982;2022-10-16T18:01:32;15.00;99.90
6520;DHT22;3293;51.690;5.982;2022-10-16T18:06:33;14.90;99.90
6520;DHT22;3293;51.690;5.982;2022-10-16T18:11:34;14.90;99.90
6520;DHT22;3293;51.690;5.982;2022-10-16T18:16:34;15.10;99.90
6520;DHT22;3293;51.690;5.982;2022-10-16T18:21:35;15.10;99.90
6520;DHT22;3293;51.690;5.982;2022-10-16T18:26:36;15.20;99.90
6520;DHT22;3293;51.690;5.982;2022-10-16T18:31:37;15.20;99.90
6520;DHT22;3293;51.690;5.982;2022-10-16T18:36:38;15.10;99.90
6520;DHT22;3293;51.690;5.982;2022-10-16T18:41:40;15.00;99.90
6520;DHT22;3293;51.690;5.982;2022-10-16T18:46:40;15.10;99.90
6520;DHT22;3293;51.690;5.982;2022-10-16T18:51:40;15.00;99.90
6520;DHT22;3293;51.690;5.982;2022-10-16T18:56:41;15.00;99.90
6520;DHT22;3293;51.690;5.982;2022-10-16T19:01:41;15.00;99.90
6520;DHT22;3293;51.690;5.982;2022-10-16T19:06:47;15.00;99.90
6520;DHT22;3293;51.690;5.982;2022-10-16T19:11:48;14.80;99.90
6520;DHT22;3293;51.690;5.982;2022-10-16T19:16:48;14.70;99.90
6520;DHT22;3293;51.690;5.982;2022-10-16T19:21:48;14.80;99.90
6520;DHT22;3293;51.690;5.982;2022-10-16T19:26:57;14.90;99.90
6520;DHT22;3293;51.690;5.982;2022-10-16T19:31:58;14.80;99.90
6520;DHT22;3293;51.690;5.982;2022-10-16T19:37:00;14.70;99.90
6520;DHT22;3293;51.690;5.982;2022-10-16T19:42:00;14.60;99.90
6520;DHT22;3293;51.690;5.982;2022-10-16T19:47:00;14.40;99.90
6520;DHT22;3293;51.690;5.982;2022-10-16T19:52:02;14.40;99.90
6520;DHT22;3293;51.690;5.982;2022-10-16T19:57:02;14.40;99.90
6520;DHT22;3293;51.690;5.982;2022-10-16T20:02:02;14.40;99.90
6520;DHT22;3293;51.690;5.982;2022-10-16T20:07:02;14.30;99.90
6520;DHT22;3293;51.690;5.982;2022-10-16T20:12:03;14.20;99.90
6520;DHT22;3293;51.690;5.982;2022-10-16T20:17:04;14.20;99.90
6520;DHT22;3293;51.690;5.982;2022-10-16T20:22:04;14.10;99.90
6520;DHT22;3293;51.690;5.982;2022-10-16T20:27:04;14.20;99.90
6520;DHT22;3293;51.690;5.982;2022-10-16T20:32:04;14.20;99.90
6520;DHT22;3293;51.690;5.982;2022-10-16T20:37:04;14.20;99.90
6520;DHT22;3293;51.690;5.982;2022-10-16T20:42:04;14.20;99.90
6520;DHT22;3293;51.690;5.982;2022-10-16T20:47:04;14.20;99.90
6520;DHT22;3293;51.690;5.982;2022-10-16T20:52:04;14.20;99.90
6520;DHT22;3293;51.690;5.982;2022-10-16T20:57:04;14.10;99.90
6520;DHT22;3293;51.690;5.982;2022-10-16T21:02:04;14.10;99.90
6520;DHT22;3293;51.690;5.982;2022-10-16T21:07:06;14.20;99.90
6520;DHT22;3293;51.690;5.982;2022-10-16T21:12:06;14.10;99.90
6520;DHT22;3293;51.690;5.982;2022-10-16T21:17:06;14.10;99.90
6520;DHT22;3293;51.690;5.982;2022-10-16T21:22:07;14.00;99.90
6520;DHT22;3293;51.690;5.982;2022-10-16T21:27:08;13.90;99.90
6520;DHT22;3293;51.690;5.982;2022-10-16T21:32:08;14.00;99.90
6520;DHT22;3293;51.690;5.982;2022-10-16T21:37:08;13.80;99.90
6520;DHT22;3293;51.690;5.982;2022-10-16T21:42:08;13.70;99.90
6520;DHT22;3293;51.690;5.982;2022-10-16T21:47:08;13.60;99.90
6520;DHT22;3293;51.690;5.982;2022-10-16T21:52:08;13.60;99.90
6520;DHT22;3293;51.690;5.982;2022-10-16T21:57:08;13.50;99.90
6520;DHT22;3293;51.690;5.982;2022-10-16T22:02:08;13.40;99.90
6520;DHT22;3293;51.690;5.982;2022-10-16T22:07:08;13.30;99.90
6520;DHT22;3293;51.690;5.982;2022-10-16T22:12:08;13.20;99.90
6520;DHT22;3293;51.690;5.982;2022-10-16T22:17:08;13.30;99.90
6520;DHT22;3293;51.690;5.982;2022-10-16T22:22:08;13.20;99.90
6520;DHT22;3293;51.690;5.982;2022-10-16T22:27:08;13.20;99.90
6520;DHT22;3293;51.690;5.982;2022-10-16T22:32:08;13.10;99.90
6520;DHT22;3293;51.690;5.982;2022-10-16T22:37:08;13.00;99.90
6520;DHT22;3293;51.690;5.982;2022-10-16T22:42:08;13.00;99.90
6520;DHT22;3293;51.690;5.982;2022-10-16T22:47:08;13.10;99.90
6520;DHT22;3293;51.690;5.982;2022-10-16T22:52:08;13.20;99.90
6520;DHT22;3293;51.690;5.982;2022-10-16T22:57:08;13.40;99.90
6520;DHT22;3293;51.690;5.982;2022-10-16T23:02:08;13.50;99.90
6520;DHT22;3293;51.690;5.982;2022-10-16T23:07:08;13.70;99.90
6520;DHT22;3293;51.690;5.982;2022-10-16T23:12:08;13.70;99.90
6520;DHT22;3293;51.690;5.982;2022-10-16T23:17:08;13.70;99.90
6520;DHT22;3293;51.690;5.982;2022-10-16T23:22:08;13.80;99.90
6520;DHT22;3293;51.690;5.982;2022-10-16T23:27:08;13.80;99.90
6520;DHT22;3293;51.690;5.982;2022-10-16T23:32:07;13.70;99.90
6520;DHT22;3293;51.690;5.982;2022-10-16T23:37:07;13.60;99.90
6520;DHT22;3293;51.690;5.982;2022-10-16T23:42:07;13.60;99.90
6520;DHT22;3293;51.690;5.982;2022-10-16T23:47:07;13.50;99.90
6520;DHT22;3293;51.690;5.982;2022-10-16T23:52:08;13.50;99.90
6520;DHT22;3293;51.690;5.982;2022-10-16T23:57:08;13.50;99.90
